Terminal Aerodrome Forecast
Issued by NWS Northern Indiana

Home | Current Version | Previous Version | Text Only | Print | Product List | Glossary On
Versions: 1 2 3 4 5 6 7 8 9 10 11 12 13 14 15 16 17
000
FTUS43 KIWX 311137
TAFFWA
TAF
KFWA 311137Z 3112/0112 VRB02KT 2SM BR BKN004
     FM311400 33004KT 5SM BR OVC008
     FM311600 34005KT P6SM BKN025
     FM311800 35007KT P6SM VCTS BKN040CB
     FM312100 35008KT P6SM BKN040
     FM010200 36004KT P6SM SKC=

USA.gov is the U.S. government's official web portal to all federal, state and local government web resources and services.